createdAt,value
2023-05-09T00:01:13.549Z,10.50
2023-05-09T00:04:16.417Z,11.07
2023-05-09T00:07:18.032Z,10.70
2023-05-09T00:10:19.808Z,9.67
2023-05-09T00:13:21.548Z,10.00
2023-05-09T00:16:24.330Z,9.83
2023-05-09T00:19:26.094Z,10.13
2023-05-09T00:22:27.982Z,9.07
2023-05-09T00:25:29.677Z,9.50
2023-05-09T00:28:31.331Z,9.10
2023-05-09T00:31:33.253Z,9.03
2023-05-09T00:34:34.848Z,9.10
2023-05-09T00:37:36.438Z,9.17
2023-05-09T00:40:38.145Z,10.10
2023-05-09T00:43:40.267Z,9.83
2023-05-09T00:46:43.308Z,9.53
2023-05-09T00:49:45.027Z,9.97
2023-05-09T00:52:46.614Z,9.00
2023-05-09T00:55:48.389Z,10.40
2023-05-09T00:58:50.239Z,10.50
2023-05-09T01:01:52.018Z,10.47
2023-05-09T01:04:53.893Z,9.77
2023-05-09T01:08:00.007Z,11.57
2023-05-09T01:11:06.685Z,11.97
2023-05-09T01:14:08.259Z,11.83
2023-05-09T01:17:29.229Z,13.10
2023-05-09T01:20:37.556Z,13.10
2023-05-09T01:23:42.403Z,12.63
2023-05-09T01:26:46.622Z,11.50
2023-05-09T01:29:51.630Z,11.73
2023-05-09T01:32:56.632Z,11.73
2023-05-09T01:36:01.962Z,11.60
2023-05-09T01:39:05.888Z,11.07
2023-05-09T01:42:08.381Z,11.67
2023-05-09T01:45:10.684Z,11.10
2023-05-09T01:48:12.935Z,11.87
2023-05-09T01:51:15.232Z,11.17
2023-05-09T01:54:17.706Z,10.73
2023-05-09T01:57:19.897Z,11.63
2023-05-09T02:00:22.236Z,11.70
2023-05-09T02:03:24.076Z,12.10
2023-05-09T02:06:26.559Z,12.30
2023-05-09T02:09:28.226Z,12.57
2023-05-09T02:12:29.937Z,12.83
2023-05-09T02:15:31.864Z,13.07
2023-05-09T02:18:37.333Z,12.27
2023-05-09T02:21:39.106Z,13.33
2023-05-09T02:24:43.025Z,12.63
2023-05-09T02:27:46.730Z,11.87
2023-05-09T02:30:49.905Z,12.70
2023-05-09T02:33:52.754Z,11.73
2023-05-09T02:36:54.413Z,12.33
2023-05-09T02:39:56.136Z,12.47
2023-05-09T02:42:57.832Z,13.33
2023-05-09T02:45:59.534Z,13.07
2023-05-09T02:49:01.777Z,11.90
2023-05-09T02:52:03.831Z,11.97
2023-05-09T02:55:07.418Z,11.13
2023-05-09T02:58:14.810Z,11.57
2023-05-09T03:01:18.601Z,9.20
2023-05-09T03:04:20.295Z,8.23
2023-05-09T03:07:21.965Z,8.27
2023-05-09T03:10:23.599Z,8.53
2023-05-09T03:13:25.218Z,8.13
2023-05-09T03:16:26.974Z,8.27
2023-05-09T03:19:28.749Z,7.53
2023-05-09T03:22:30.366Z,7.33
2023-05-09T03:25:36.474Z,6.87
2023-05-09T03:28:38.433Z,7.30
2023-05-09T03:31:41.381Z,7.00
2023-05-09T03:34:43.212Z,6.53
2023-05-09T03:37:45.416Z,6.10
2023-05-09T03:40:47.081Z,6.30
2023-05-09T03:43:49.049Z,8.07
2023-05-09T03:46:50.809Z,7.37
2023-05-09T03:49:53.674Z,8.90
2023-05-09T03:52:58.089Z,8.83
2023-05-09T03:56:00.142Z,8.73
2023-05-09T03:59:04.189Z,11.17
2023-05-09T04:02:08.278Z,11.53
2023-05-09T04:05:10.023Z,12.07
2023-05-09T04:08:12.832Z,13.57
2023-05-09T04:11:14.573Z,13.33
2023-05-09T04:14:19.147Z,14.57
2023-05-09T04:17:23.356Z,14.70
2023-05-09T04:20:25.480Z,14.50
2023-05-09T04:23:27.349Z,13.50
2023-05-09T04:26:39.283Z,12.30
2023-05-09T04:29:44.804Z,10.60
2023-05-09T04:32:46.885Z,10.40
2023-05-09T04:35:49.101Z,10.50
2023-05-09T04:38:53.992Z,9.57
2023-05-09T04:41:59.333Z,7.70
2023-05-09T04:45:02.950Z,8.20
2023-05-09T04:48:05.152Z,8.67
2023-05-09T04:51:07.736Z,7.87
2023-05-09T04:54:12.019Z,6.63
2023-05-09T04:57:18.349Z,4.70
2023-05-09T05:00:30.445Z,4.60
2023-05-09T05:03:32.412Z,4.23
2023-05-09T05:06:34.067Z,4.93
2023-05-09T05:09:35.815Z,4.40
2023-05-09T05:12:40.571Z,5.23
2023-05-09T05:15:45.550Z,4.87
2023-05-09T05:18:48.498Z,4.40
2023-05-09T05:21:51.806Z,5.20
2023-05-09T05:24:53.585Z,5.70
2023-05-09T05:27:55.419Z,5.67
2023-05-09T05:30:57.084Z,6.93
2023-05-09T05:33:58.816Z,6.53
2023-05-09T05:37:01.112Z,7.80
2023-05-09T05:40:03.028Z,6.90
2023-05-09T05:43:05.680Z,6.37
2023-05-09T05:46:09.010Z,5.67
2023-05-09T05:49:10.981Z,6.17
2023-05-09T05:52:12.689Z,6.07
2023-05-09T05:55:14.994Z,5.67
2023-05-09T05:58:16.969Z,4.70
2023-05-09T06:01:18.607Z,5.67
2023-05-09T06:04:20.967Z,5.77
2023-05-09T06:07:22.771Z,4.00
2023-05-09T06:10:24.443Z,4.00
2023-05-09T06:13:26.233Z,3.00
2023-05-09T06:16:34.626Z,3.47
2023-05-09T06:19:37.178Z,5.73
2023-05-09T06:22:38.911Z,12.83
2023-05-09T06:25:40.784Z,5.63
2023-05-09T06:28:42.460Z,3.30
2023-05-09T06:31:44.121Z,4.77
2023-05-09T06:34:45.792Z,3.23
2023-05-09T06:37:48.893Z,4.47
2023-05-09T06:40:50.937Z,5.40
2023-05-09T06:43:52.909Z,3.83
2023-05-09T06:46:54.585Z,11.80
2023-05-09T06:49:56.237Z,3.47
2023-05-09T06:52:57.816Z,7.43
2023-05-09T06:55:59.448Z,4.10
2023-05-09T06:59:01.099Z,3.93
2023-05-09T07:05:03.030Z,3.90
2023-05-09T07:08:04.908Z,4.90
2023-05-09T07:11:06.600Z,4.40
2023-05-09T07:14:08.229Z,5.07
2023-05-09T07:17:22.145Z,6.03
2023-05-09T07:20:25.750Z,5.70
2023-05-09T07:23:27.381Z,8.77
2023-05-09T07:26:29.206Z,5.57
2023-05-09T07:29:30.872Z,5.10
2023-05-09T07:32:32.539Z,6.30
2023-05-09T07:35:34.197Z,5.73
2023-05-09T07:38:35.963Z,8.37
2023-05-09T07:41:37.745Z,5.43
2023-05-09T07:44:40.611Z,7.53
2023-05-09T07:47:42.256Z,6.47
2023-05-09T07:50:44.045Z,6.27
2023-05-09T07:53:45.720Z,8.07
2023-05-09T07:56:47.343Z,7.87
2023-05-09T07:59:48.970Z,9.17
2023-05-09T08:02:51.377Z,12.57
2023-05-09T08:05:53.793Z,8.47
2023-05-09T08:08:55.403Z,9.80
2023-05-09T08:11:57.048Z,8.93
2023-05-09T08:14:58.669Z,8.93
2023-05-09T08:18:00.380Z,10.47
2023-05-09T08:21:02.210Z,12.07
2023-05-09T08:24:04.040Z,8.37
2023-05-09T08:27:05.777Z,10.63
2023-05-09T08:30:07.720Z,8.63
2023-05-09T08:33:09.360Z,14.73
2023-05-09T08:36:10.994Z,11.33
2023-05-09T08:39:12.649Z,7.80
2023-05-09T08:42:16.060Z,8.40
2023-05-09T08:45:20.070Z,8.30
2023-05-09T08:48:22.637Z,9.10
2023-05-09T08:51:24.641Z,8.03
2023-05-09T08:54:26.487Z,9.33
2023-05-09T08:57:28.231Z,9.17
2023-05-09T09:00:30.199Z,8.97
2023-05-09T09:03:32.209Z,10.30
2023-05-09T09:06:34.426Z,9.60
2023-05-09T09:09:36.318Z,9.83
2023-05-09T09:12:38.612Z,9.57
2023-05-09T09:15:41.493Z,9.90
2023-05-09T09:18:43.245Z,10.03
2023-05-09T09:21:45.628Z,8.90
2023-05-09T09:24:47.334Z,9.03
2023-05-09T09:27:48.975Z,15.60
2023-05-09T09:30:50.728Z,13.97
2023-05-09T09:33:52.481Z,24.17
2023-05-09T09:36:54.218Z,9.67
2023-05-09T09:39:56.372Z,7.67
2023-05-09T09:42:58.031Z,8.47
2023-05-09T09:46:03.491Z,10.73
2023-05-09T09:49:05.128Z,8.33
2023-05-09T09:52:07.093Z,6.10
2023-05-09T09:55:08.861Z,9.93
2023-05-09T09:58:25.129Z,5.93
2023-05-09T10:01:26.849Z,7.10
2023-05-09T10:04:30.854Z,9.03
2023-05-09T10:07:33.855Z,5.03
2023-05-09T10:10:36.276Z,5.20
2023-05-09T10:13:38.817Z,4.53
2023-05-09T10:16:44.205Z,4.93
2023-05-09T10:19:47.665Z,5.03
2023-05-09T10:22:49.418Z,5.33
2023-05-09T10:26:09.565Z,6.90
2023-05-09T10:29:12.751Z,5.17
2023-05-09T10:32:20.593Z,5.93
2023-05-09T10:35:26.889Z,6.47
2023-05-09T10:38:28.832Z,6.17
2023-05-09T10:41:31.461Z,5.17
2023-05-09T10:44:33.051Z,5.73
2023-05-09T10:47:34.723Z,5.90
2023-05-09T10:50:37.726Z,8.43
2023-05-09T10:53:43.923Z,7.77
2023-05-09T10:56:45.656Z,9.07
2023-05-09T10:59:47.279Z,7.13
2023-05-09T11:03:10.139Z,7.17
2023-05-09T11:06:31.837Z,6.20
2023-05-09T11:09:41.395Z,5.87
2023-05-09T11:12:57.703Z,6.27
2023-05-09T11:16:03.003Z,6.50
2023-05-09T11:19:05.970Z,9.20
2023-05-09T11:22:14.906Z,6.50
2023-05-09T11:25:17.088Z,6.73
2023-05-09T11:28:29.250Z,6.80
2023-05-09T11:31:30.935Z,6.63
2023-05-09T11:34:33.470Z,7.53
2023-05-09T11:37:39.605Z,6.70
2023-05-09T11:40:41.602Z,7.80
2023-05-09T11:43:44.556Z,7.47
2023-05-09T11:46:47.510Z,7.03
2023-05-09T11:49:49.843Z,6.50
2023-05-09T11:52:51.559Z,5.63
2023-05-09T11:55:53.491Z,6.43
2023-05-09T11:58:55.156Z,5.80
2023-05-09T12:01:56.855Z,7.40
2023-05-09T12:05:07.110Z,7.27
2023-05-09T12:08:09.607Z,8.20
2023-05-09T12:11:11.462Z,7.03
2023-05-09T12:14:25.863Z,6.50
2023-05-09T12:17:27.541Z,6.40
2023-05-09T12:20:39.364Z,6.57
2023-05-09T12:23:41.003Z,7.07
2023-05-09T12:26:42.727Z,5.97
2023-05-09T12:29:46.208Z,6.93
2023-05-09T12:32:48.145Z,7.70
2023-05-09T12:36:00.870Z,8.63
2023-05-09T12:39:02.712Z,8.93
2023-05-09T12:42:11.563Z,8.67
2023-05-09T12:45:13.907Z,7.80
2023-05-09T12:48:15.884Z,15.83
2023-05-09T12:51:21.769Z,7.30
2023-05-09T12:54:24.379Z,6.80
2023-05-09T12:57:29.393Z,8.63
2023-05-09T13:00:45.013Z,9.80
2023-05-09T13:03:53.855Z,10.10
2023-05-09T13:06:57.453Z,9.70
2023-05-09T13:10:00.936Z,10.30
2023-05-09T13:13:04.226Z,10.63
2023-05-09T13:16:08.137Z,9.93
2023-05-09T13:19:12.277Z,9.93
2023-05-09T13:22:13.911Z,10.10
2023-05-09T13:25:16.948Z,11.80
2023-05-09T13:28:18.608Z,12.57
2023-05-09T13:31:20.392Z,10.40
2023-05-09T13:34:22.057Z,12.07
2023-05-09T13:37:23.723Z,14.33
2023-05-09T13:40:25.426Z,11.70
2023-05-09T13:43:27.479Z,11.63
2023-05-09T13:46:29.228Z,12.60
2023-05-09T13:49:31.160Z,13.80
2023-05-09T13:52:32.775Z,12.93
2023-05-09T13:55:35.234Z,13.47
2023-05-09T13:58:36.967Z,13.40
2023-05-09T14:01:38.751Z,13.47
2023-05-09T14:04:41.298Z,14.60
2023-05-09T14:07:42.994Z,15.20
2023-05-09T14:10:44.789Z,15.53
2023-05-09T14:13:46.570Z,17.67
2023-05-09T14:16:48.364Z,15.87
2023-05-09T14:19:51.216Z,21.27
2023-05-09T14:22:55.143Z,16.07
2023-05-09T14:25:58.276Z,18.17
2023-05-09T14:28:59.972Z,17.37
2023-05-09T14:32:01.660Z,18.13
2023-05-09T14:35:03.402Z,18.60
2023-05-09T14:38:05.053Z,16.77
2023-05-09T14:41:07.310Z,15.90
2023-05-09T14:44:08.888Z,17.13
2023-05-09T14:47:10.578Z,16.23
2023-05-09T14:50:15.879Z,17.50
2023-05-09T14:53:17.820Z,18.20
2023-05-09T14:56:19.432Z,17.60
2023-05-09T14:59:23.620Z,18.73
2023-05-09T15:02:25.985Z,17.17
2023-05-09T15:05:27.835Z,17.50
2023-05-09T15:08:30.976Z,18.93
2023-05-09T15:11:43.660Z,19.63
2023-05-09T15:14:54.114Z,15.50
2023-05-09T15:17:55.894Z,19.20
2023-05-09T15:20:57.737Z,17.20
2023-05-09T15:23:59.455Z,18.37
2023-05-09T15:27:01.150Z,18.10
2023-05-09T15:30:03.420Z,15.23
2023-05-09T15:33:05.234Z,17.77
2023-05-09T15:36:08.112Z,16.50
2023-05-09T15:39:12.732Z,17.73
2023-05-09T15:42:15.311Z,16.33
2023-05-09T15:45:17.409Z,17.17
2023-05-09T15:48:22.255Z,17.43
2023-05-09T15:51:24.774Z,18.00
2023-05-09T15:54:27.836Z,16.63
2023-05-09T15:57:29.549Z,31.00
2023-05-09T16:00:31.864Z,18.13
2023-05-09T16:03:34.053Z,16.97
2023-05-09T16:06:36.627Z,16.83
2023-05-09T16:09:38.380Z,14.77
2023-05-09T16:12:40.566Z,15.13
2023-05-09T16:15:42.350Z,16.13
2023-05-09T16:18:44.283Z,15.77
2023-05-09T16:21:46.358Z,17.87
2023-05-09T16:24:49.166Z,16.43
2023-05-09T16:27:50.955Z,16.17
2023-05-09T16:30:52.740Z,16.70
2023-05-09T16:33:54.440Z,17.17
2023-05-09T16:36:56.320Z,18.47
2023-05-09T16:39:59.498Z,18.13
2023-05-09T16:43:01.453Z,17.07
2023-05-09T16:46:03.335Z,17.80
2023-05-09T16:49:05.644Z,18.53
2023-05-09T16:52:07.336Z,18.57
2023-05-09T16:55:09.022Z,18.83
2023-05-09T16:58:10.977Z,18.47
2023-05-09T17:01:12.661Z,20.87
2023-05-09T17:04:14.803Z,32.13
2023-05-09T17:07:16.539Z,20.97
2023-05-09T17:10:18.402Z,19.67
2023-05-09T17:13:20.221Z,28.40
2023-05-09T17:16:22.046Z,22.83
2023-05-09T17:19:23.893Z,24.00
2023-05-09T17:22:25.800Z,23.77
2023-05-09T17:25:28.893Z,20.60
2023-05-09T17:28:30.796Z,19.67
2023-05-09T17:31:32.682Z,22.27
2023-05-09T17:34:34.335Z,21.87
2023-05-09T17:37:36.327Z,24.33
2023-05-09T17:40:38.202Z,21.73
2023-05-09T17:43:39.926Z,20.83
2023-05-09T17:46:41.881Z,20.37
2023-05-09T17:49:44.110Z,18.40
2023-05-09T17:52:45.841Z,20.93
2023-05-09T17:55:47.871Z,20.57
2023-05-09T17:58:53.060Z,21.57
2023-05-09T18:01:55.127Z,19.63
2023-05-09T18:04:56.765Z,22.60
2023-05-09T18:08:01.055Z,20.07
2023-05-09T18:11:03.014Z,19.40
2023-05-09T18:14:04.734Z,19.23
2023-05-09T18:17:06.456Z,19.23
2023-05-09T18:20:08.831Z,19.70
2023-05-09T18:23:10.614Z,20.10
2023-05-09T18:26:12.282Z,19.40
2023-05-09T18:29:13.973Z,20.07
2023-05-09T18:32:16.364Z,19.13
2023-05-09T18:35:17.958Z,19.63
2023-05-09T18:38:22.757Z,21.10
2023-05-09T18:41:25.835Z,22.20
2023-05-09T18:44:27.695Z,26.23
2023-05-09T18:47:29.411Z,21.70
2023-05-09T18:50:31.505Z,20.67
2023-05-09T18:53:33.337Z,19.77
2023-05-09T18:56:39.676Z,21.37
2023-05-09T18:59:41.408Z,19.90
2023-05-09T19:02:43.136Z,19.63
2023-05-09T19:05:46.263Z,21.37
2023-05-09T19:08:50.060Z,21.90
2023-05-09T19:11:51.796Z,20.83
2023-05-09T19:14:58.406Z,22.67
2023-05-09T19:18:00.745Z,22.03
2023-05-09T19:21:05.697Z,21.47
2023-05-09T19:24:15.379Z,20.53
2023-05-09T19:27:17.355Z,20.33
2023-05-09T19:30:20.912Z,19.33
2023-05-09T19:33:22.571Z,19.23
2023-05-09T19:36:24.279Z,19.63
2023-05-09T19:39:25.944Z,20.43
2023-05-09T19:42:27.645Z,19.97
2023-05-09T19:45:29.327Z,19.40
2023-05-09T19:48:31.031Z,20.43
2023-05-09T19:51:32.722Z,19.07
2023-05-09T19:54:34.565Z,19.40
2023-05-09T19:57:40.301Z,18.83
2023-05-09T20:00:42.101Z,19.97
2023-05-09T20:03:46.731Z,17.97
2023-05-09T20:06:50.850Z,17.63
2023-05-09T20:09:55.356Z,18.07
2023-05-09T20:13:01.619Z,18.50
2023-05-09T20:16:03.588Z,17.73
2023-05-09T20:19:09.592Z,17.83
2023-05-09T20:22:11.389Z,17.70
2023-05-09T20:25:13.799Z,17.90
2023-05-09T20:28:20.107Z,16.97
2023-05-09T20:31:21.732Z,17.20
2023-05-09T20:34:24.718Z,16.50
2023-05-09T20:37:26.358Z,18.03
2023-05-09T20:40:28.335Z,18.87
2023-05-09T20:43:30.650Z,20.17
2023-05-09T20:46:32.328Z,19.60
2023-05-09T20:49:34.019Z,19.67
2023-05-09T20:52:35.795Z,19.93
2023-05-09T20:55:37.371Z,20.00
2023-05-09T20:58:39.533Z,19.80
2023-05-09T21:01:41.515Z,18.93
2023-05-09T21:04:43.132Z,19.27
2023-05-09T21:07:44.726Z,19.10
2023-05-09T21:10:46.335Z,18.70
2023-05-09T21:13:48.157Z,19.83
2023-05-09T21:16:51.772Z,17.93
2023-05-09T21:19:53.459Z,17.93
2023-05-09T21:22:55.094Z,18.10
2023-05-09T21:25:57.152Z,18.37
2023-05-09T21:28:58.828Z,18.60
2023-05-09T21:32:00.569Z,18.67
2023-05-09T21:35:02.404Z,18.37
2023-05-09T21:38:04.031Z,18.23
2023-05-09T21:41:05.692Z,19.07
2023-05-09T21:44:07.834Z,18.43
2023-05-09T21:47:10.297Z,19.50
2023-05-09T21:50:11.998Z,19.10
2023-05-09T21:53:13.879Z,19.07
2023-05-09T21:56:15.500Z,19.37
2023-05-09T21:59:20.727Z,18.83
2023-05-09T22:02:22.326Z,20.10
2023-05-09T22:05:24.005Z,19.47
2023-05-09T22:08:25.907Z,20.10
2023-05-09T22:11:27.594Z,17.90
2023-05-09T22:14:29.247Z,17.60
2023-05-09T22:17:31.007Z,19.43
2023-05-09T22:20:32.714Z,18.53
2023-05-09T22:23:34.411Z,19.33
2023-05-09T22:26:36.009Z,19.00
2023-05-09T22:29:37.631Z,19.07
2023-05-09T22:32:39.682Z,19.03
2023-05-09T22:35:41.449Z,18.70
2023-05-09T22:38:43.121Z,19.07
2023-05-09T22:41:44.776Z,18.23
2023-05-09T22:44:47.522Z,16.50
2023-05-09T22:47:49.313Z,17.03
2023-05-09T22:50:50.976Z,16.17
2023-05-09T22:53:52.560Z,15.10
2023-05-09T22:56:54.185Z,13.27
2023-05-09T22:59:55.778Z,13.73
2023-05-09T23:02:59.407Z,13.17
2023-05-09T23:06:01.288Z,13.57
2023-05-09T23:09:03.017Z,14.93
2023-05-09T23:12:04.952Z,15.30
2023-05-09T23:15:07.505Z,14.93
2023-05-09T23:18:09.195Z,15.40
2023-05-09T23:21:11.149Z,14.33
2023-05-09T23:24:12.721Z,14.23
2023-05-09T23:27:14.571Z,13.47
2023-05-09T23:30:16.409Z,12.97
2023-05-09T23:33:18.224Z,13.30
2023-05-09T23:36:19.837Z,12.87
2023-05-09T23:39:21.582Z,13.27
2023-05-09T23:42:23.192Z,13.73
2023-05-09T23:45:24.957Z,13.57
2023-05-09T23:48:26.911Z,13.63
2023-05-09T23:51:28.573Z,12.30
2023-05-09T23:54:30.336Z,11.97
2023-05-09T23:57:31.963Z,13.17
